KNEW/NEW METAR and TAF weather

Enter ICAO airport designator
Station Type Date Time Source
KNEW METAR 2020/11/25 22:53 UTC NOAA

KNEW 252253Z AUTO 15010G19KT 1 1/2SM VCTS +RA FEW031 BKN048 OVC060 23/19 A3003 RMK AO2 VIS 3/4V4 LTG DSNT E-S TSB2154E28 SLP164 P0085 T02280189


Station Type Date Time Source
KNEW Decoded METAR 2020/11/25 22:53 UTC NOAA

NEW ORLEANS LAKEFRONT AIRPORT , LA, United States (KNEW) 30-03N 90-02W 3M
Nov 25, 2020 - 05:53 PM EST / 2020.11.25 2253 UTC
Wind: from the SSE (150 degrees) at 12 MPH (10 KT) gusting to 22 MPH (19 KT):0
Visibility: 1 1/2 mile(s):0
Sky conditions: overcast
Weather: thunder in the vicinity; heavy rain; Lightning observed
Precipitation last hour: 0.85 inches
Temperature: 73.0 F (22.8 C)
Dew Point: 66.0 F (18.9 C)
Relative Humidity: 78%
Pressure (altimeter): 30.03 in. Hg (1016 hPa)
ob: KNEW 252253Z AUTO 15010G19KT 1 1/2SM VCTS +RA FEW031 BKN048 OVC060 23/19 A3003 RMK AO2 VIS 3/4V4 LTG DSNT E-S TSB2154E28 SLP164 P0085 T02280189
cycle: 23

Station Type Date Time Source
KNEW TAF 2020/11/25 22:16 UTC NOAA

TAF
AMD KNEW 252214Z 2522/2618 19013KT 5SM -TSRA BR SCT025 BKN035CB
TEMPO 2522/2523 VRB15G25KT 1SM +TSRA BR SCT015 BKN025CB
FM260000 19006KT 5SM BR BKN015
FM260800 22006KT 5SM BR OVC006
FM261100 05005KT 2SM BR OVC003
FM261700 VRB04KT P6SM OVC015

Example: see airport list